sensor_id;sensor_type;location;lat;lon;timestamp;pressure;altitude;pressure_sealevel;temperature;humidity
4570;BME280;2297;51.442;6.996;2022-08-03T00:00:14;100314.31;;;24.05;42.07
4570;BME280;2297;51.442;6.996;2022-08-03T00:02:42;100314.53;;;24.02;41.73
4570;BME280;2297;51.442;6.996;2022-08-03T00:05:08;100318.22;;;24.01;41.63
4570;BME280;2297;51.442;6.996;2022-08-03T00:08:03;100318.22;;;24.01;41.88
4570;BME280;2297;51.442;6.996;2022-08-03T00:10:30;100321.03;;;24.00;41.73
4570;BME280;2297;51.442;6.996;2022-08-03T00:12:56;100311.69;;;23.92;41.71
4570;BME280;2297;51.442;6.996;2022-08-03T00:15:24;100311.34;;;23.97;41.96
4570;BME280;2297;51.442;6.996;2022-08-03T00:17:52;100308.66;;;23.97;41.50
4570;BME280;2297;51.442;6.996;2022-08-03T00:20:19;100310.38;;;23.98;41.76
4570;BME280;2297;51.442;6.996;2022-08-03T00:22:46;100307.91;;;23.95;41.88
4570;BME280;2297;51.442;6.996;2022-08-03T00:25:13;100300.91;;;23.92;41.92
4570;BME280;2297;51.442;6.996;2022-08-03T00:27:39;100304.69;;;23.90;41.77
4570;BME280;2297;51.442;6.996;2022-08-03T00:30:07;100303.72;;;23.91;41.75
4570;BME280;2297;51.442;6.996;2022-08-03T00:32:34;100302.13;;;23.88;42.06
4570;BME280;2297;51.442;6.996;2022-08-03T00:35:02;100307.84;;;23.84;42.03
4570;BME280;2297;51.442;6.996;2022-08-03T00:37:29;100301.47;;;23.85;41.99
4570;BME280;2297;51.442;6.996;2022-08-03T00:39:55;100300.00;;;23.81;41.89
4570;BME280;2297;51.442;6.996;2022-08-03T00:42:22;100301.94;;;23.79;42.08
4570;BME280;2297;51.442;6.996;2022-08-03T00:44:48;100300.25;;;23.78;42.26
4570;BME280;2297;51.442;6.996;2022-08-03T00:47:15;100295.72;;;23.78;42.49
4570;BME280;2297;51.442;6.996;2022-08-03T00:49:42;100288.97;;;23.72;42.53
4570;BME280;2297;51.442;6.996;2022-08-03T00:52:10;100287.75;;;23.76;42.38
4570;BME280;2297;51.442;6.996;2022-08-03T00:54:39;100287.75;;;23.76;42.42
4570;BME280;2297;51.442;6.996;2022-08-03T00:57:06;100293.84;;;23.67;42.59
4570;BME280;2297;51.442;6.996;2022-08-03T00:59:32;100292.63;;;23.71;42.50
4570;BME280;2297;51.442;6.996;2022-08-03T01:01:59;100290.66;;;23.73;42.35
4570;BME280;2297;51.442;6.996;2022-08-03T01:04:26;100285.88;;;23.66;42.26
4570;BME280;2297;51.442;6.996;2022-08-03T01:07:01;100282.09;;;23.68;42.28
4570;BME280;2297;51.442;6.996;2022-08-03T01:09:40;100284.16;;;23.65;42.63
4570;BME280;2297;51.442;6.996;2022-08-03T01:12:13;100278.59;;;23.55;42.76
4570;BME280;2297;51.442;6.996;2022-08-03T01:14:45;100283.53;;;23.61;42.52
4570;BME280;2297;51.442;6.996;2022-08-03T01:17:23;100278.97;;;23.62;42.38
4570;BME280;2297;51.442;6.996;2022-08-03T01:19:55;100273.97;;;23.57;42.52
4570;BME280;2297;51.442;6.996;2022-08-03T01:25:35;100280.63;;;23.75;42.20
4570;BME280;2297;51.442;6.996;2022-08-03T01:28:18;100279.47;;;23.55;42.67
4570;BME280;2297;51.442;6.996;2022-08-03T01:30:49;100278.97;;;23.50;42.81
4570;BME280;2297;51.442;6.996;2022-08-03T01:33:21;100273.19;;;23.43;43.04
4570;BME280;2297;51.442;6.996;2022-08-03T01:35:53;100279.41;;;23.44;42.76
4570;BME280;2297;51.442;6.996;2022-08-03T01:38:26;100276.31;;;23.37;42.88
4570;BME280;2297;51.442;6.996;2022-08-03T01:40:55;100278.72;;;23.29;42.97
4570;BME280;2297;51.442;6.996;2022-08-03T01:43:24;100280.78;;;23.25;43.44
4570;BME280;2297;51.442;6.996;2022-08-03T01:45:54;100278.50;;;23.32;43.20
4570;BME280;2297;51.442;6.996;2022-08-03T01:48:21;100278.44;;;23.21;43.33
4570;BME280;2297;51.442;6.996;2022-08-03T01:50:48;100276.25;;;23.26;43.29
4570;BME280;2297;51.442;6.996;2022-08-03T01:53:17;100271.59;;;23.28;43.10
4570;BME280;2297;51.442;6.996;2022-08-03T01:55:47;100272.16;;;23.20;43.53
4570;BME280;2297;51.442;6.996;2022-08-03T01:58:17;100266.22;;;23.28;43.31
4570;BME280;2297;51.442;6.996;2022-08-03T02:00:45;100261.31;;;23.22;43.07
4570;BME280;2297;51.442;6.996;2022-08-03T02:03:15;100265.56;;;23.24;43.28
4570;BME280;2297;51.442;6.996;2022-08-03T02:05:44;100265.56;;;23.24;43.35
4570;BME280;2297;51.442;6.996;2022-08-03T02:08:12;100265.09;;;23.19;43.32
4570;BME280;2297;51.442;6.996;2022-08-03T02:10:42;100272.53;;;23.16;43.62
4570;BME280;2297;51.442;6.996;2022-08-03T02:13:11;100267.16;;;23.16;43.58
4570;BME280;2297;51.442;6.996;2022-08-03T02:15:40;100259.78;;;23.18;43.34
4570;BME280;2297;51.442;6.996;2022-08-03T02:18:09;100267.38;;;23.13;43.54
4570;BME280;2297;51.442;6.996;2022-08-03T02:20:40;100272.78;;;23.13;43.54
4570;BME280;2297;51.442;6.996;2022-08-03T02:23:08;100266.34;;;23.02;43.95
4570;BME280;2297;51.442;6.996;2022-08-03T02:25:39;100269.09;;;23.14;43.49
4570;BME280;2297;51.442;6.996;2022-08-03T02:28:12;100259.31;;;23.13;43.52
4570;BME280;2297;51.442;6.996;2022-08-03T02:30:44;100266.34;;;23.02;43.88
4570;BME280;2297;51.442;6.996;2022-08-03T02:33:23;100270.25;;;22.98;44.21
4570;BME280;2297;51.442;6.996;2022-08-03T02:35:52;100267.69;;;22.97;43.90
4570;BME280;2297;51.442;6.996;2022-08-03T02:38:23;100263.97;;;22.98;43.89
4570;BME280;2297;51.442;6.996;2022-08-03T02:40:54;100265.31;;;22.92;43.96
4570;BME280;2297;51.442;6.996;2022-08-03T02:43:23;100265.75;;;22.86;44.07
4570;BME280;2297;51.442;6.996;2022-08-03T02:45:52;100269.19;;;22.88;43.96
4570;BME280;2297;51.442;6.996;2022-08-03T02:48:22;100263.56;;;22.91;44.00
4570;BME280;2297;51.442;6.996;2022-08-03T02:50:52;100260.16;;;22.89;44.17
4570;BME280;2297;51.442;6.996;2022-08-03T02:53:20;100257.63;;;22.74;44.52
4570;BME280;2297;51.442;6.996;2022-08-03T02:55:48;100260.84;;;22.80;44.35
4570;BME280;2297;51.442;6.996;2022-08-03T02:58:17;100262.53;;;22.81;44.43
4570;BME280;2297;51.442;6.996;2022-08-03T03:00:46;100263.41;;;22.81;44.51
4570;BME280;2297;51.442;6.996;2022-08-03T03:03:13;100265.81;;;22.73;44.54
4570;BME280;2297;51.442;6.996;2022-08-03T03:05:41;100263.97;;;22.73;44.62
4570;BME280;2297;51.442;6.996;2022-08-03T03:08:11;100264.97;;;22.59;44.88
4570;BME280;2297;51.442;6.996;2022-08-03T03:10:40;100260.53;;;22.58;44.92
4570;BME280;2297;51.442;6.996;2022-08-03T03:13:08;100261.09;;;22.51;45.15
4570;BME280;2297;51.442;6.996;2022-08-03T03:15:35;100265.38;;;22.53;45.11
4570;BME280;2297;51.442;6.996;2022-08-03T03:18:04;100262.59;;;22.55;44.93
4570;BME280;2297;51.442;6.996;2022-08-03T03:20:35;100262.72;;;22.40;45.36
4570;BME280;2297;51.442;6.996;2022-08-03T03:23:04;100260.00;;;22.53;44.99
4570;BME280;2297;51.442;6.996;2022-08-03T03:25:33;100262.34;;;22.58;45.08
4570;BME280;2297;51.442;6.996;2022-08-03T03:28:01;100266.47;;;22.51;44.91
4570;BME280;2297;51.442;6.996;2022-08-03T03:30:29;100267.13;;;22.41;45.45
4570;BME280;2297;51.442;6.996;2022-08-03T03:32:56;100263.69;;;22.39;45.44
4570;BME280;2297;51.442;6.996;2022-08-03T03:35:23;100265.22;;;22.18;45.77
4570;BME280;2297;51.442;6.996;2022-08-03T03:37:51;100261.97;;;22.38;45.54
4570;BME280;2297;51.442;6.996;2022-08-03T03:40:17;100265.63;;;22.37;45.52
4570;BME280;2297;51.442;6.996;2022-08-03T03:42:46;100263.69;;;22.39;45.24
4570;BME280;2297;51.442;6.996;2022-08-03T03:45:13;100267.78;;;22.19;45.80
4570;BME280;2297;51.442;6.996;2022-08-03T03:47:41;100271.22;;;22.34;45.43
4570;BME280;2297;51.442;6.996;2022-08-03T03:50:08;100271.22;;;22.34;45.43
4570;BME280;2297;51.442;6.996;2022-08-03T03:52:35;100268.22;;;22.26;45.64
4570;BME280;2297;51.442;6.996;2022-08-03T03:55:02;100262.19;;;22.35;45.56
4570;BME280;2297;51.442;6.996;2022-08-03T03:57:29;100259.19;;;22.27;45.67
4570;BME280;2297;51.442;6.996;2022-08-03T03:59:57;100265.88;;;22.21;45.76
4570;BME280;2297;51.442;6.996;2022-08-03T04:02:23;100262.09;;;22.24;45.76
4570;BME280;2297;51.442;6.996;2022-08-03T04:04:50;100265.44;;;22.15;45.94
4570;BME280;2297;51.442;6.996;2022-08-03T04:07:48;100263.72;;;22.26;45.87
4570;BME280;2297;51.442;6.996;2022-08-03T04:10:38;100267.13;;;22.16;46.40
4570;BME280;2297;51.442;6.996;2022-08-03T04:13:28;100270.16;;;22.24;46.10
4570;BME280;2297;51.442;6.996;2022-08-03T04:15:59;100268.44;;;22.23;46.15
4570;BME280;2297;51.442;6.996;2022-08-03T04:18:28;100267.59;;;22.22;46.17
4570;BME280;2297;51.442;6.996;2022-08-03T04:20:58;100272.09;;;22.22;46.29
4570;BME280;2297;51.442;6.996;2022-08-03T04:23:30;100272.81;;;21.98;46.83
4570;BME280;2297;51.442;6.996;2022-08-03T04:26:00;100278.13;;;22.13;46.65
4570;BME280;2297;51.442;6.996;2022-08-03T04:28:28;100269.09;;;22.14;46.48
4570;BME280;2297;51.442;6.996;2022-08-03T04:31:07;100272.09;;;22.09;46.84
4570;BME280;2297;51.442;6.996;2022-08-03T04:33:36;100272.50;;;22.16;46.52
4570;BME280;2297;51.442;6.996;2022-08-03T04:36:06;100269.94;;;22.14;46.85
4570;BME280;2297;51.442;6.996;2022-08-03T04:38:39;100277.03;;;22.02;46.88
4570;BME280;2297;51.442;6.996;2022-08-03T04:41:07;100275.97;;;22.18;46.66
4570;BME280;2297;51.442;6.996;2022-08-03T04:43:35;100270.81;;;22.15;46.83
4570;BME280;2297;51.442;6.996;2022-08-03T04:46:06;100275.97;;;22.18;46.69
4570;BME280;2297;51.442;6.996;2022-08-03T04:48:34;100278.13;;;22.13;46.75
4570;BME280;2297;51.442;6.996;2022-08-03T04:51:00;100285.66;;;22.07;47.02
4570;BME280;2297;51.442;6.996;2022-08-03T04:53:28;100280.50;;;22.04;47.06
4570;BME280;2297;51.442;6.996;2022-08-03T04:56:02;100284.81;;;22.07;47.16
4570;BME280;2297;51.442;6.996;2022-08-03T04:58:29;100284.44;;;21.99;47.30
4570;BME280;2297;51.442;6.996;2022-08-03T05:00:56;100280.06;;;22.10;47.21
4570;BME280;2297;51.442;6.996;2022-08-03T05:03:24;100283.72;;;22.09;47.44
4570;BME280;2297;51.442;6.996;2022-08-03T05:05:50;100278.66;;;22.05;47.46
4570;BME280;2297;51.442;6.996;2022-08-03T05:08:17;100284.69;;;22.08;47.20
4570;BME280;2297;51.442;6.996;2022-08-03T05:10:44;100282.22;;;22.05;47.46
4570;BME280;2297;51.442;6.996;2022-08-03T05:13:11;100278.31;;;21.97;47.78
4570;BME280;2297;51.442;6.996;2022-08-03T05:15:39;100281.31;;;21.92;48.02
4570;BME280;2297;51.442;6.996;2022-08-03T05:18:06;100281.75;;;21.99;47.86
4570;BME280;2297;51.442;6.996;2022-08-03T05:20:34;100283.72;;;22.09;47.53
4570;BME280;2297;51.442;6.996;2022-08-03T05:23:00;100288.22;;;21.96;47.85
4570;BME280;2297;51.442;6.996;2022-08-03T05:25:28;100291.25;;;22.04;47.88
4570;BME280;2297;51.442;6.996;2022-08-03T05:27:55;100287.59;;;22.05;48.00
4570;BME280;2297;51.442;6.996;2022-08-03T05:30:21;100287.78;;;22.02;47.88
4570;BME280;2297;51.442;6.996;2022-08-03T05:32:48;100283.47;;;21.87;48.11
4570;BME280;2297;51.442;6.996;2022-08-03T05:35:15;100289.81;;;21.99;48.02
4570;BME280;2297;51.442;6.996;2022-08-03T05:37:43;100290.13;;;21.94;48.36
4570;BME280;2297;51.442;6.996;2022-08-03T05:40:11;100286.47;;;21.95;48.38
4570;BME280;2297;51.442;6.996;2022-08-03T05:42:38;100285.09;;;22.02;48.21
4570;BME280;2297;51.442;6.996;2022-08-03T05:45:05;100283.91;;;22.06;48.08
4570;BME280;2297;51.442;6.996;2022-08-03T05:47:39;100295.22;;;22.12;47.98
4570;BME280;2297;51.442;6.996;2022-08-03T05:50:06;100295.97;;;22.14;48.03
4570;BME280;2297;51.442;6.996;2022-08-03T05:52:33;100295.31;;;22.10;48.24
4570;BME280;2297;51.442;6.996;2022-08-03T05:55:01;100286.72;;;22.05;48.35
4570;BME280;2297;51.442;6.996;2022-08-03T05:57:28;100295.66;;;22.05;48.41
4570;BME280;2297;51.442;6.996;2022-08-03T05:59:54;100295.28;;;21.97;48.49
4570;BME280;2297;51.442;6.996;2022-08-03T06:02:21;100289.16;;;21.95;48.66
4570;BME280;2297;51.442;6.996;2022-08-03T06:04:48;100289.09;;;22.09;48.43
4570;BME280;2297;51.442;6.996;2022-08-03T06:07:14;100295.09;;;22.00;48.82
4570;BME280;2297;51.442;6.996;2022-08-03T06:09:41;100294.03;;;22.16;48.36
4570;BME280;2297;51.442;6.996;2022-08-03T06:12:09;100292.34;;;22.15;48.48
4570;BME280;2297;51.442;6.996;2022-08-03T06:14:36;100296.19;;;22.23;48.49
4570;BME280;2297;51.442;6.996;2022-08-03T06:17:02;100293.50;;;22.23;48.64
4570;BME280;2297;51.442;6.996;2022-08-03T06:19:29;100298.69;;;22.26;48.41
4570;BME280;2297;51.442;6.996;2022-08-03T06:21:56;100291.47;;;22.27;48.71
4570;BME280;2297;51.442;6.996;2022-08-03T06:24:22;100297.78;;;22.39;48.54
4570;BME280;2297;51.442;6.996;2022-08-03T06:26:49;100298.66;;;22.39;48.58
4570;BME280;2297;51.442;6.996;2022-08-03T06:29:17;100297.13;;;22.61;48.13
4570;BME280;2297;51.442;6.996;2022-08-03T06:31:43;100297.03;;;22.50;48.39
4570;BME280;2297;51.442;6.996;2022-08-03T06:34:10;100299.38;;;22.67;48.12
4570;BME280;2297;51.442;6.996;2022-08-03T06:36:37;100298.72;;;22.76;47.81
4570;BME280;2297;51.442;6.996;2022-08-03T06:39:04;100300.44;;;22.78;47.96
4570;BME280;2297;51.442;6.996;2022-08-03T06:41:32;100304.69;;;22.69;48.13
4570;BME280;2297;51.442;6.996;2022-08-03T06:43:59;100307.78;;;22.75;48.05
4570;BME280;2297;51.442;6.996;2022-08-03T06:46:27;100307.47;;;22.67;48.48
4570;BME280;2297;51.442;6.996;2022-08-03T06:48:53;100306.50;;;22.68;48.41
4570;BME280;2297;51.442;6.996;2022-08-03T06:51:20;100302.69;;;22.84;48.07
4570;BME280;2297;51.442;6.996;2022-08-03T06:53:48;100305.16;;;22.87;48.19
4570;BME280;2297;51.442;6.996;2022-08-03T06:56:14;100303.53;;;22.97;47.83
4570;BME280;2297;51.442;6.996;2022-08-03T06:58:41;100304.47;;;22.96;48.00
4570;BME280;2297;51.442;6.996;2022-08-03T07:01:07;100297.97;;;23.12;48.18
4570;BME280;2297;51.442;6.996;2022-08-03T07:03:35;100310.69;;;23.09;47.97
4570;BME280;2297;51.442;6.996;2022-08-03T07:06:02;100302.59;;;23.09;48.26
4570;BME280;2297;51.442;6.996;2022-08-03T07:08:29;100308.75;;;23.12;48.25
4570;BME280;2297;51.442;6.996;2022-08-03T07:10:55;100305.69;;;23.16;48.32
4570;BME280;2297;51.442;6.996;2022-08-03T07:13:22;100309.44;;;23.02;48.54
4570;BME280;2297;51.442;6.996;2022-08-03T07:15:49;100306.59;;;23.17;48.03
4570;BME280;2297;51.442;6.996;2022-08-03T07:18:15;100314.69;;;23.28;47.94
4570;BME280;2297;51.442;6.996;2022-08-03T07:20:43;100311.59;;;23.21;48.17
4570;BME280;2297;51.442;6.996;2022-08-03T07:23:10;100317.28;;;23.05;48.42
4570;BME280;2297;51.442;6.996;2022-08-03T07:25:36;100316.44;;;23.29;48.16
4570;BME280;2297;51.442;6.996;2022-08-03T07:28:03;100327.88;;;23.33;48.01
4570;BME280;2297;51.442;6.996;2022-08-03T07:30:30;100328.28;;;23.39;47.75
4570;BME280;2297;51.442;6.996;2022-08-03T07:32:57;100331.94;;;23.38;47.77
4570;BME280;2297;51.442;6.996;2022-08-03T07:35:24;100324.84;;;23.24;47.66
4570;BME280;2297;51.442;6.996;2022-08-03T07:37:52;100328.47;;;23.36;47.48
4570;BME280;2297;51.442;6.996;2022-08-03T07:40:18;100325.97;;;23.46;47.24
4570;BME280;2297;51.442;6.996;2022-08-03T07:42:45;100326.00;;;23.57;47.26
4570;BME280;2297;51.442;6.996;2022-08-03T07:45:12;100328.63;;;23.59;47.32
4570;BME280;2297;51.442;6.996;2022-08-03T07:47:38;100319.31;;;23.63;47.16
4570;BME280;2297;51.442;6.996;2022-08-03T07:50:06;100315.63;;;23.64;47.52
4570;BME280;2297;51.442;6.996;2022-08-03T07:52:33;100320.31;;;23.73;47.60
4570;BME280;2297;51.442;6.996;2022-08-03T07:55:18;100319.84;;;23.80;47.54
4570;BME280;2297;51.442;6.996;2022-08-03T07:57:45;100323.50;;;23.79;47.43
4570;BME280;2297;51.442;6.996;2022-08-03T08:00:14;100323.06;;;23.85;47.44
4570;BME280;2297;51.442;6.996;2022-08-03T08:02:41;100325.75;;;23.85;47.24
4570;BME280;2297;51.442;6.996;2022-08-03T08:05:08;100323.13;;;23.96;46.79
4570;BME280;2297;51.442;6.996;2022-08-03T08:07:35;100331.22;;;23.96;46.71
4570;BME280;2297;51.442;6.996;2022-08-03T08:10:03;100325.03;;;23.94;46.94
4570;BME280;2297;51.442;6.996;2022-08-03T08:12:31;100311.72;;;24.04;46.49
4570;BME280;2297;51.442;6.996;2022-08-03T08:14:58;100316.50;;;24.00;46.42
4570;BME280;2297;51.442;6.996;2022-08-03T08:17:24;100319.72;;;24.05;46.26
4570;BME280;2297;51.442;6.996;2022-08-03T08:19:51;100321.41;;;24.06;46.04
4570;BME280;2297;51.442;6.996;2022-08-03T08:22:18;100311.88;;;24.14;45.23
4570;BME280;2297;51.442;6.996;2022-08-03T08:24:45;100317.53;;;24.33;45.12
4570;BME280;2297;51.442;6.996;2022-08-03T08:27:13;100308.81;;;24.41;44.72
4570;BME280;2297;51.442;6.996;2022-08-03T08:29:41;100319.47;;;24.42;44.88
4570;BME280;2297;51.442;6.996;2022-08-03T08:32:08;100321.69;;;24.49;44.26
4570;BME280;2297;51.442;6.996;2022-08-03T08:34:35;100322.81;;;24.69;43.80
4570;BME280;2297;51.442;6.996;2022-08-03T08:37:02;100322.72;;;24.59;42.69
4570;BME280;2297;51.442;6.996;2022-08-03T08:39:29;100321.63;;;24.62;42.73
4570;BME280;2297;51.442;6.996;2022-08-03T08:41:56;100318.78;;;24.74;42.44
4570;BME280;2297;51.442;6.996;2022-08-03T08:44:22;100314.25;;;24.86;42.20
4570;BME280;2297;51.442;6.996;2022-08-03T08:46:52;100318.97;;;25.05;42.40
4570;BME280;2297;51.442;6.996;2022-08-03T08:49:22;100320.94;;;25.03;41.88
4570;BME280;2297;51.442;6.996;2022-08-03T08:51:53;100311.63;;;24.96;41.65
4570;BME280;2297;51.442;6.996;2022-08-03T08:54:21;100320.09;;;24.91;41.79
4570;BME280;2297;51.442;6.996;2022-08-03T08:56:49;100321.47;;;24.97;41.82
4570;BME280;2297;51.442;6.996;2022-08-03T08:59:17;100314.59;;;24.93;41.72
4570;BME280;2297;51.442;6.996;2022-08-03T09:01:45;100327.56;;;25.11;41.67
4570;BME280;2297;51.442;6.996;2022-08-03T09:04:13;100315.78;;;25.00;41.40
4570;BME280;2297;51.442;6.996;2022-08-03T09:06:39;100318.50;;;25.12;41.38
4570;BME280;2297;51.442;6.996;2022-08-03T09:09:06;100322.13;;;25.33;41.30
4570;BME280;2297;51.442;6.996;2022-08-03T09:11:33;100313.25;;;25.42;40.93
4570;BME280;2297;51.442;6.996;2022-08-03T09:14:00;100323.50;;;25.28;40.39
4570;BME280;2297;51.442;6.996;2022-08-03T09:16:27;100322.03;;;25.56;40.13
4570;BME280;2297;51.442;6.996;2022-08-03T09:18:53;100325.22;;;25.61;40.42
4570;BME280;2297;51.442;6.996;2022-08-03T09:21:23;100312.16;;;25.66;40.05
4570;BME280;2297;51.442;6.996;2022-08-03T09:23:52;100314.53;;;25.60;39.71
4570;BME280;2297;51.442;6.996;2022-08-03T09:26:20;100314.78;;;25.56;39.46
4570;BME280;2297;51.442;6.996;2022-08-03T09:28:54;100320.28;;;25.66;39.67
4570;BME280;2297;51.442;6.996;2022-08-03T09:31:29;100325.56;;;25.68;39.80
4570;BME280;2297;51.442;6.996;2022-08-03T09:33:56;100322.34;;;25.74;39.85
4570;BME280;2297;51.442;6.996;2022-08-03T09:36:40;100325.59;;;25.89;39.03
4570;BME280;2297;51.442;6.996;2022-08-03T09:39:08;100314.81;;;25.78;38.98
4570;BME280;2297;51.442;6.996;2022-08-03T09:41:37;100325.19;;;25.94;38.91
4570;BME280;2297;51.442;6.996;2022-08-03T09:44:04;100329.59;;;25.95;38.87
4570;BME280;2297;51.442;6.996;2022-08-03T09:46:31;100326.72;;;26.07;39.01
4570;BME280;2297;51.442;6.996;2022-08-03T09:49:11;100315.63;;;26.11;38.51
4570;BME280;2297;51.442;6.996;2022-08-03T09:51:39;100319.06;;;26.13;38.56
4570;BME280;2297;51.442;6.996;2022-08-03T09:54:07;100320.78;;;26.14;37.84
4570;BME280;2297;51.442;6.996;2022-08-03T09:56:38;100323.88;;;26.09;37.19
4570;BME280;2297;51.442;6.996;2022-08-03T09:59:05;100319.41;;;26.29;37.13
4570;BME280;2297;51.442;6.996;2022-08-03T10:01:33;100329.69;;;26.04;37.74
4570;BME280;2297;51.442;6.996;2022-08-03T10:03:59;100312.97;;;26.20;37.43
4570;BME280;2297;51.442;6.996;2022-08-03T10:06:26;100317.44;;;26.31;37.23
4570;BME280;2297;51.442;6.996;2022-08-03T10:09:06;100306.75;;;26.51;37.37
4570;BME280;2297;51.442;6.996;2022-08-03T10:11:33;100318.56;;;26.50;37.15
4570;BME280;2297;51.442;6.996;2022-08-03T10:14:11;100316.25;;;26.24;37.30
4570;BME280;2297;51.442;6.996;2022-08-03T10:16:43;100308.56;;;26.40;37.41
4570;BME280;2297;51.442;6.996;2022-08-03T10:19:10;100318.44;;;26.61;36.66
4570;BME280;2297;51.442;6.996;2022-08-03T10:21:41;100314.47;;;26.65;37.08
4570;BME280;2297;51.442;6.996;2022-08-03T10:24:10;100318.00;;;26.56;36.82
4570;BME280;2297;51.442;6.996;2022-08-03T10:26:38;100310.94;;;26.74;36.48
4570;BME280;2297;51.442;6.996;2022-08-03T10:29:09;100311.19;;;26.93;36.67
4570;BME280;2297;51.442;6.996;2022-08-03T10:31:38;100304.34;;;26.98;36.43
4570;BME280;2297;51.442;6.996;2022-08-03T10:34:10;100312.00;;;26.93;36.99
4570;BME280;2297;51.442;6.996;2022-08-03T10:36:41;100300.34;;;27.02;37.30
4570;BME280;2297;51.442;6.996;2022-08-03T10:39:11;100292.94;;;27.14;36.85
4570;BME280;2297;51.442;6.996;2022-08-03T10:41:40;100292.25;;;27.12;36.61
4570;BME280;2297;51.442;6.996;2022-08-03T10:44:31;100291.00;;;27.36;36.71
4570;BME280;2297;51.442;6.996;2022-08-03T10:46:58;100290.41;;;27.32;36.15
4570;BME280;2297;51.442;6.996;2022-08-03T10:49:26;100291.84;;;27.36;35.79
4570;BME280;2297;51.442;6.996;2022-08-03T10:51:53;100280.56;;;27.31;35.77
4570;BME280;2297;51.442;6.996;2022-08-03T10:54:40;100293.25;;;27.40;35.04
4570;BME280;2297;51.442;6.996;2022-08-03T10:57:47;100286.84;;;27.42;34.38
4570;BME280;2297;51.442;6.996;2022-08-03T11:00:15;100278.41;;;27.45;34.95
4570;BME280;2297;51.442;6.996;2022-08-03T11:03:05;100284.44;;;27.58;34.77
4570;BME280;2297;51.442;6.996;2022-08-03T11:05:35;100269.31;;;27.65;34.21
4570;BME280;2297;51.442;6.996;2022-08-03T11:08:20;100272.69;;;27.87;34.37
4570;BME280;2297;51.442;6.996;2022-08-03T11:10:50;100273.44;;;27.69;34.13
4570;BME280;2297;51.442;6.996;2022-08-03T11:13:19;100275.28;;;27.79;33.76
4570;BME280;2297;51.442;6.996;2022-08-03T11:15:52;100274.59;;;27.67;33.88
4570;BME280;2297;51.442;6.996;2022-08-03T11:18:19;100261.53;;;27.90;33.80
4570;BME280;2297;51.442;6.996;2022-08-03T11:20:49;100257.53;;;27.94;33.57
4570;BME280;2297;51.442;6.996;2022-08-03T11:23:19;100263.59;;;27.78;34.38
4570;BME280;2297;51.442;6.996;2022-08-03T11:26:13;100260.94;;;27.96;33.96
4570;BME280;2297;51.442;6.996;2022-08-03T11:28:40;100274.38;;;27.98;34.16
4570;BME280;2297;51.442;6.996;2022-08-03T11:34:12;100262.66;;;28.17;33.43
4570;BME280;2297;51.442;6.996;2022-08-03T11:39:39;100261.75;;;28.26;33.05
4570;BME280;2297;51.442;6.996;2022-08-03T11:42:39;100257.47;;;28.23;32.72
4570;BME280;2297;51.442;6.996;2022-08-03T11:45:07;100258.56;;;28.41;32.76
4570;BME280;2297;51.442;6.996;2022-08-03T11:47:36;100270.09;;;28.43;32.63
4570;BME280;2297;51.442;6.996;2022-08-03T11:50:04;100267.91;;;28.56;32.45
4570;BME280;2297;51.442;6.996;2022-08-03T11:52:34;100245.25;;;28.75;32.31
4570;BME280;2297;51.442;6.996;2022-08-03T11:55:02;100251.19;;;28.61;32.59
4570;BME280;2297;51.442;6.996;2022-08-03T11:57:35;100253.44;;;28.65;32.43
4570;BME280;2297;51.442;6.996;2022-08-03T12:00:19;100253.03;;;28.60;31.92
4570;BME280;2297;51.442;6.996;2022-08-03T12:02:54;100255.78;;;28.78;31.87
4570;BME280;2297;51.442;6.996;2022-08-03T12:05:24;100253.50;;;28.73;31.80
4570;BME280;2297;51.442;6.996;2022-08-03T12:07:57;100254.41;;;28.92;31.45
4570;BME280;2297;51.442;6.996;2022-08-03T12:10:25;100254.28;;;29.12;31.40
4570;BME280;2297;51.442;6.996;2022-08-03T12:12:54;100258.50;;;29.24;31.58
4570;BME280;2297;51.442;6.996;2022-08-03T12:15:25;100248.91;;;29.56;31.47
4570;BME280;2297;51.442;6.996;2022-08-03T12:17:52;100241.88;;;29.71;30.84
4570;BME280;2297;51.442;6.996;2022-08-03T12:20:21;100251.78;;;29.72;30.70
4570;BME280;2297;51.442;6.996;2022-08-03T12:22:48;100246.72;;;29.78;29.91
4570;BME280;2297;51.442;6.996;2022-08-03T12:25:20;100245.13;;;29.93;29.78
4570;BME280;2297;51.442;6.996;2022-08-03T12:27:48;100238.84;;;30.01;29.69
4570;BME280;2297;51.442;6.996;2022-08-03T12:30:15;100245.41;;;29.90;29.77
4570;BME280;2297;51.442;6.996;2022-08-03T12:32:43;100233.59;;;30.08;29.42
4570;BME280;2297;51.442;6.996;2022-08-03T12:35:20;100238.16;;;29.99;29.47
4570;BME280;2297;51.442;6.996;2022-08-03T12:37:48;100235.47;;;30.07;29.73
4570;BME280;2297;51.442;6.996;2022-08-03T12:40:23;100221.50;;;30.02;29.59
4570;BME280;2297;51.442;6.996;2022-08-03T12:42:50;100250.75;;;30.00;29.89
4570;BME280;2297;51.442;6.996;2022-08-03T12:45:17;100242.56;;;29.65;30.17
4570;BME280;2297;51.442;6.996;2022-08-03T12:47:54;100238.16;;;29.72;30.31
4570;BME280;2297;51.442;6.996;2022-08-03T12:50:26;100237.94;;;29.66;30.48
4570;BME280;2297;51.442;6.996;2022-08-03T12:52:53;100242.22;;;29.95;30.38
4570;BME280;2297;51.442;6.996;2022-08-03T12:55:21;100233.94;;;30.04;29.83
4570;BME280;2297;51.442;6.996;2022-08-03T12:57:48;100238.38;;;30.05;29.92
4570;BME280;2297;51.442;6.996;2022-08-03T13:00:17;100232.19;;;30.21;29.68
4570;BME280;2297;51.442;6.996;2022-08-03T13:02:44;100238.22;;;30.42;29.79
4570;BME280;2297;51.442;6.996;2022-08-03T13:05:13;100239.84;;;30.26;29.27
4570;BME280;2297;51.442;6.996;2022-08-03T13:07:40;100229.69;;;30.36;28.70
4570;BME280;2297;51.442;6.996;2022-08-03T13:10:08;100223.25;;;30.46;28.79
4570;BME280;2297;51.442;6.996;2022-08-03T13:12:45;100228.81;;;30.70;29.04
4570;BME280;2297;51.442;6.996;2022-08-03T13:15:12;100231.41;;;30.37;28.73
4570;BME280;2297;51.442;6.996;2022-08-03T13:17:38;100223.94;;;30.40;28.86
4570;BME280;2297;51.442;6.996;2022-08-03T13:20:06;100228.66;;;30.29;28.92
4570;BME280;2297;51.442;6.996;2022-08-03T13:22:34;100228.78;;;30.62;28.72
4570;BME280;2297;51.442;6.996;2022-08-03T13:25:01;100224.94;;;30.98;28.51
4570;BME280;2297;51.442;6.996;2022-08-03T13:27:29;100228.53;;;31.07;28.05
4570;BME280;2297;51.442;6.996;2022-08-03T13:29:56;100224.81;;;31.24;27.70